LFLH

Chalon-Champforgeuil Airport

Airport
ICAO code
LFLH
IATA Code
XCD
Summary
ICAO Region
EUR
ICAO Territory
Location

, Bourgogne

Serving
Chalon
Elevation
623 ft
Coordinates
46° 49' 34" N , 4° 49' 3" E
Metar
Observation
LFLH 011030Z AUTO 02009KT 360V060 9999 FEW031 OVC041 07/02 Q1021
Station
Chalon-Champforgeuil
Date/Time
2022-12-01 10:30:00
Wind direction
20°
Wind speed
09 kts
Lowest cloud amount
few clouds
Temperature
7°C
Dew point
2°C
Humidity
70%
QNH
1021 hPa
Weather condition
n/a

Runways

Designator Length Width Surface Rops
17/35 1440 30 ASP No/No

Airport map

Aerial View

SKYbrary Partners:

Safety knowledge contributed by: